createdAt,value
2016-02-14T15:47:57.587Z,19.73
2016-02-14T15:48:57.449Z,19.7
2016-02-14T15:49:57.452Z,19.67
2016-02-14T15:50:57.471Z,19.7
2016-02-14T15:51:57.410Z,19.7
2016-02-14T15:52:57.414Z,19.67
2016-02-14T15:53:57.775Z,19.77
2016-02-14T15:54:57.418Z,19.79
2016-02-14T15:55:57.390Z,19.69
2016-02-14T15:56:56.626Z,19.71
2016-02-14T15:57:57.599Z,19.79
2016-02-14T15:58:57.398Z,19.84
2016-02-14T15:59:57.323Z,19.71
2016-02-14T16:00:57.326Z,19.79
2016-02-14T16:01:57.328Z,19.73
2016-02-14T16:02:57.612Z,19.73
2016-02-14T16:03:57.334Z,19.71
2016-02-14T16:04:57.290Z,19.67
2016-02-14T16:05:57.275Z,19.73
2016-02-14T16:06:57.435Z,19.74
2016-02-14T16:07:57.235Z,19.79
2016-02-14T16:08:57.189Z,19.76
2016-02-14T16:09:57.584Z,19.81
2016-02-14T16:10:57.493Z,19.85
2016-02-14T16:11:57.944Z,19.81
2016-02-14T16:12:57.160Z,19.89
2016-02-14T16:13:57.111Z,19.92
2016-02-14T16:14:57.140Z,19.95
2016-02-14T16:15:57.090Z,19.91
2016-02-14T16:16:57.481Z,19.96
2016-02-14T16:17:57.889Z,19.94
2016-02-14T16:18:57.092Z,20.02
2016-02-14T16:19:57.030Z,20.03
2016-02-14T16:20:57.516Z,19.99
2016-02-14T16:21:57.033Z,20.03
2016-02-14T16:22:57.035Z,19.96
2016-02-14T16:23:57.069Z,19.98
2016-02-14T16:24:57.055Z,19.96
2016-02-14T16:25:57.009Z,19.98
2016-02-14T16:26:56.982Z,20.04
2016-02-14T16:27:56.999Z,20.03
2016-02-14T16:28:57.315Z,20.04
2016-02-14T16:29:56.237Z,20.11
2016-02-14T16:30:56.992Z,20.17
2016-02-14T16:31:56.964Z,20.11
2016-02-14T16:32:56.575Z,20.14
2016-02-14T16:33:57.109Z,20.07
2016-02-14T16:34:56.784Z,20.06
2016-02-14T16:35:56.943Z,20.02
2016-02-14T16:36:56.930Z,20.13
2016-02-14T16:37:56.933Z,20.02
2016-02-14T16:38:56.936Z,20.02
2016-02-14T16:39:58.406Z,20.06
2016-02-14T16:40:56.909Z,20.07
2016-02-14T16:41:57.100Z,20.04
2016-02-14T16:42:56.884Z,20.04
2016-02-14T16:43:58.105Z,20.13
2016-02-14T16:44:56.873Z,20.13
2016-02-14T16:45:56.876Z,20.14
2016-02-14T16:46:56.879Z,20.02
2016-02-14T16:47:57.615Z,20.13
2016-02-14T16:48:57.056Z,20.13
2016-02-14T16:49:56.965Z,20.14
2016-02-14T16:50:57.249Z,20.06
2016-02-14T16:51:56.955Z,20.06
2016-02-14T16:52:57.942Z,20.03
2016-02-14T16:53:56.239Z,20.03
2016-02-14T16:54:56.648Z,20.07
2016-02-14T16:55:56.931Z,20.03
2016-02-14T16:56:56.982Z,20.07
2016-02-14T16:57:57.015Z,19.98
2016-02-14T16:58:56.799Z,20.1
2016-02-14T16:59:56.786Z,20.03
2016-02-14T17:00:56.773Z,20.02
2016-02-14T17:01:57.185Z,20.06
2016-02-14T17:02:56.748Z,20.13
2016-02-14T17:03:56.750Z,20.14
2016-02-14T17:04:56.831Z,20.06
2016-02-14T17:05:56.881Z,20.11
2016-02-14T17:06:56.726Z,20.07
2016-02-14T17:07:56.729Z,20.14
2016-02-14T17:08:56.717Z,20.17
2016-02-14T17:09:56.719Z,20.17
2016-02-14T17:10:56.706Z,20.14
2016-02-14T17:11:56.739Z,20.13
2016-02-14T17:12:56.711Z,20.11
2016-02-14T17:13:56.730Z,20.14
2016-02-14T17:14:56.670Z,20.13
2016-02-14T17:15:56.672Z,20.09
2016-02-14T17:16:56.785Z,20.16
2016-02-14T17:17:56.662Z,20.13
2016-02-14T17:18:56.650Z,20.14
2016-02-14T17:19:56.652Z,20.13
2016-02-14T17:20:56.639Z,20.17
2016-02-14T17:21:56.642Z,20.22
2016-02-14T17:22:56.910Z,20.21
2016-02-14T17:23:56.632Z,20.26
2016-02-14T17:24:56.697Z,20.19
2016-02-14T17:25:56.637Z,20.29
2016-02-14T17:26:55.952Z,20.31
2016-02-14T17:27:56.674Z,20.22
2016-02-14T17:28:56.833Z,20.24
2016-02-14T17:29:56.585Z,20.26
2016-02-14T17:30:56.572Z,20.28
2016-02-14T17:31:56.576Z,20.25
2016-02-14T17:32:56.671Z,20.22
2016-02-14T17:33:57.018Z,20.26
2016-02-14T17:34:56.864Z,20.25
2016-02-14T17:36:00.620Z,20.24
2016-02-14T17:36:56.542Z,20.22
2016-02-14T17:37:56.575Z,20.14
2016-02-14T17:38:56.595Z,20.11
2016-02-14T17:39:56.597Z,20.13
2016-02-14T17:40:56.677Z,20.19
2016-02-14T17:41:56.509Z,20.24
2016-02-14T17:42:56.511Z,20.28
2016-02-14T17:43:56.498Z,20.16
2016-02-14T17:44:56.610Z,20.31
2016-02-14T17:45:56.488Z,20.29
2016-02-14T17:46:56.678Z,20.29
2016-02-14T17:47:56.102Z,20.31
2016-02-14T17:48:56.480Z,20.31
2016-02-14T17:49:56.467Z,20.31
2016-02-14T17:50:56.455Z,20.31
2016-02-14T17:51:56.441Z,20.29
2016-02-14T17:54:07.949Z,20.36
2016-02-14T17:55:07.921Z,20.32
2016-02-14T17:56:07.908Z,20.36
2016-02-14T17:57:08.426Z,20.25
2016-02-14T17:58:08.210Z,20.25
2016-02-14T17:59:07.901Z,20.02
2016-02-14T18:00:07.918Z,19.98
2016-02-14T18:01:08.031Z,19.88
2016-02-14T18:02:08.096Z,19.8
2016-02-14T18:03:08.052Z,19.85
2016-02-14T18:04:07.898Z,19.81
2016-02-14T18:05:08.042Z,19.76
2016-02-14T18:06:07.873Z,19.74
2016-02-14T18:07:07.844Z,19.69
2016-02-14T18:08:07.831Z,19.64
2016-02-14T18:09:07.834Z,19.71
2016-02-14T18:10:07.867Z,19.69
2016-02-14T18:11:08.011Z,20.02
2016-02-14T18:12:08.170Z,19.95
2016-02-14T18:13:08.204Z,19.94
2016-02-14T18:14:07.800Z,19.91
2016-02-14T18:15:07.802Z,19.99
2016-02-14T18:16:07.790Z,19.95
2016-02-14T18:17:07.808Z,19.91
2016-02-14T18:18:07.138Z,19.87
2016-02-14T18:19:07.611Z,19.94
2016-02-14T18:20:07.769Z,19.99
2016-02-14T18:21:07.757Z,19.94
2016-02-14T18:22:07.760Z,20.03
2016-02-14T18:23:07.763Z,20.07
2016-02-14T18:24:07.733Z,20.09
2016-02-14T18:25:07.752Z,20.03
2016-02-14T18:26:07.755Z,20.02
2016-02-14T18:27:07.741Z,20.03
2016-02-14T18:28:07.713Z,19.96
